sensor_id;sensor_type;location;lat;lon;timestamp;temperature;humidity
29731;DHT22;16639;51.488;0.152;2022-12-10T00:01:25;1.20;99.90
29731;DHT22;16639;51.488;0.152;2022-12-10T00:03:52;1.10;99.90
29731;DHT22;16639;51.488;0.152;2022-12-10T00:06:23;1.10;99.90
29731;DHT22;16639;51.488;0.152;2022-12-10T00:08:51;1.10;99.90
29731;DHT22;16639;51.488;0.152;2022-12-10T00:11:20;1.10;99.90
29731;DHT22;16639;51.488;0.152;2022-12-10T00:13:49;1.10;99.90
29731;DHT22;16639;51.488;0.152;2022-12-10T00:16:18;1.10;99.90
29731;DHT22;16639;51.488;0.152;2022-12-10T00:18:46;1.10;99.90
29731;DHT22;16639;51.488;0.152;2022-12-10T00:21:20;1.10;99.90
29731;DHT22;16639;51.488;0.152;2022-12-10T00:23:48;2.40;99.90
29731;DHT22;16639;51.488;0.152;2022-12-10T00:26:22;1.10;99.90
29731;DHT22;16639;51.488;0.152;2022-12-10T00:28:51;1.10;99.90
29731;DHT22;16639;51.488;0.152;2022-12-10T00:31:24;3.10;99.90
29731;DHT22;16639;51.488;0.152;2022-12-10T00:33:54;1.10;99.90
29731;DHT22;16639;51.488;0.152;2022-12-10T00:36:24;1.20;99.90
29731;DHT22;16639;51.488;0.152;2022-12-10T00:38:53;0.80;99.90
29731;DHT22;16639;51.488;0.152;2022-12-10T00:41:20;1.10;99.90
29731;DHT22;16639;51.488;0.152;2022-12-10T00:43:48;1.10;99.90
29731;DHT22;16639;51.488;0.152;2022-12-10T00:46:16;0.90;99.90
29731;DHT22;16639;51.488;0.152;2022-12-10T00:48:44;1.00;99.90
29731;DHT22;16639;51.488;0.152;2022-12-10T00:51:17;1.00;99.90
29731;DHT22;16639;51.488;0.152;2022-12-10T00:53:46;1.00;99.90
29731;DHT22;16639;51.488;0.152;2022-12-10T00:56:16;0.90;99.90
29731;DHT22;16639;51.488;0.152;2022-12-10T00:58:44;-0.20;99.90
29731;DHT22;16639;51.488;0.152;2022-12-10T01:01:22;0.90;99.90
29731;DHT22;16639;51.488;0.152;2022-12-10T01:03:53;0.90;99.90
29731;DHT22;16639;51.488;0.152;2022-12-10T01:06:30;0.80;99.90
29731;DHT22;16639;51.488;0.152;2022-12-10T01:09:00;0.90;99.90
29731;DHT22;16639;51.488;0.152;2022-12-10T01:11:31;0.90;99.90
29731;DHT22;16639;51.488;0.152;2022-12-10T01:13:59;0.90;99.90
29731;DHT22;16639;51.488;0.152;2022-12-10T01:16:27;1.00;99.90
29731;DHT22;16639;51.488;0.152;2022-12-10T01:18:55;0.90;99.90
29731;DHT22;16639;51.488;0.152;2022-12-10T01:21:27;0.90;99.90
29731;DHT22;16639;51.488;0.152;2022-12-10T01:23:56;0.90;99.90
29731;DHT22;16639;51.488;0.152;2022-12-10T01:26:27;0.90;99.90
29731;DHT22;16639;51.488;0.152;2022-12-10T01:28:55;0.90;99.90
29731;DHT22;16639;51.488;0.152;2022-12-10T01:33:52;0.80;99.90
29731;DHT22;16639;51.488;0.152;2022-12-10T01:36:23;0.80;99.90
29731;DHT22;16639;51.488;0.152;2022-12-10T01:38:50;0.80;99.90
29731;DHT22;16639;51.488;0.152;2022-12-10T01:41:28;0.80;99.90
29731;DHT22;16639;51.488;0.152;2022-12-10T01:43:59;0.80;99.90
29731;DHT22;16639;51.488;0.152;2022-12-10T01:46:35;0.80;99.90
29731;DHT22;16639;51.488;0.152;2022-12-10T01:49:07;0.80;99.90
29731;DHT22;16639;51.488;0.152;2022-12-10T01:51:37;0.80;99.90
29731;DHT22;16639;51.488;0.152;2022-12-10T01:54:08;0.70;99.90
29731;DHT22;16639;51.488;0.152;2022-12-10T01:56:40;0.70;99.90
29731;DHT22;16639;51.488;0.152;2022-12-10T01:59:08;0.70;99.90
29731;DHT22;16639;51.488;0.152;2022-12-10T02:12:16;0.60;99.90
29731;DHT22;16639;51.488;0.152;2022-12-10T02:17:45;0.60;99.90
29731;DHT22;16639;51.488;0.152;2022-12-10T02:20:33;0.90;99.90
29731;DHT22;16639;51.488;0.152;2022-12-10T02:23:22;0.60;99.90
29731;DHT22;16639;51.488;0.152;2022-12-10T02:26:01;0.60;99.90
29731;DHT22;16639;51.488;0.152;2022-12-10T02:31:21;0.60;99.90
29731;DHT22;16639;51.488;0.152;2022-12-10T02:33:53;0.60;99.90
29731;DHT22;16639;51.488;0.152;2022-12-10T02:36:25;0.60;99.90
29731;DHT22;16639;51.488;0.152;2022-12-10T02:38:55;0.60;99.90
29731;DHT22;16639;51.488;0.152;2022-12-10T02:41:30;0.60;99.90
29731;DHT22;16639;51.488;0.152;2022-12-10T02:44:00;0.60;99.90
29731;DHT22;16639;51.488;0.152;2022-12-10T02:46:30;0.60;99.90
29731;DHT22;16639;51.488;0.152;2022-12-10T02:49:00;0.60;99.90
29731;DHT22;16639;51.488;0.152;2022-12-10T02:51:28;0.80;99.90
29731;DHT22;16639;51.488;0.152;2022-12-10T02:54:01;0.60;99.90
29731;DHT22;16639;51.488;0.152;2022-12-10T02:56:54;0.60;99.90
29731;DHT22;16639;51.488;0.152;2022-12-10T02:59:47;0.70;99.90
29731;DHT22;16639;51.488;0.152;2022-12-10T03:02:20;0.60;99.90
29731;DHT22;16639;51.488;0.152;2022-12-10T03:05:02;0.60;99.90
29731;DHT22;16639;51.488;0.152;2022-12-10T03:07:41;0.80;99.90
29731;DHT22;16639;51.488;0.152;2022-12-10T03:10:24;0.80;99.90
29731;DHT22;16639;51.488;0.152;2022-12-10T03:12:59;0.80;99.90
29731;DHT22;16639;51.488;0.152;2022-12-10T03:15:28;0.90;99.90
29731;DHT22;16639;51.488;0.152;2022-12-10T03:17:59;0.80;99.90
29731;DHT22;16639;51.488;0.152;2022-12-10T03:20:30;1.80;99.90
29731;DHT22;16639;51.488;0.152;2022-12-10T03:22:59;0.80;99.90
29731;DHT22;16639;51.488;0.152;2022-12-10T03:25:30;0.70;99.90
29731;DHT22;16639;51.488;0.152;2022-12-10T03:28:00;1.50;99.90
29731;DHT22;16639;51.488;0.152;2022-12-10T03:30:30;0.70;99.90
29731;DHT22;16639;51.488;0.152;2022-12-10T03:32:59;0.60;99.90
29731;DHT22;16639;51.488;0.152;2022-12-10T03:35:27;0.60;99.90
29731;DHT22;16639;51.488;0.152;2022-12-10T03:37:55;0.60;99.90
29731;DHT22;16639;51.488;0.152;2022-12-10T03:40:24;0.60;99.90
29731;DHT22;16639;51.488;0.152;2022-12-10T03:42:52;0.50;99.90
29731;DHT22;16639;51.488;0.152;2022-12-10T03:45:19;0.50;99.90
29731;DHT22;16639;51.488;0.152;2022-12-10T03:47:47;0.50;99.90
29731;DHT22;16639;51.488;0.152;2022-12-10T03:50:16;1.70;99.90
29731;DHT22;16639;51.488;0.152;2022-12-10T03:52:44;0.50;99.90
29731;DHT22;16639;51.488;0.152;2022-12-10T03:55:11;0.50;99.90
29731;DHT22;16639;51.488;0.152;2022-12-10T03:57:39;0.40;99.90
29731;DHT22;16639;51.488;0.152;2022-12-10T04:00:08;1.00;99.90
29731;DHT22;16639;51.488;0.152;2022-12-10T04:02:36;0.40;99.90
29731;DHT22;16639;51.488;0.152;2022-12-10T04:05:04;0.40;99.90
29731;DHT22;16639;51.488;0.152;2022-12-10T04:07:34;0.40;99.90
29731;DHT22;16639;51.488;0.152;2022-12-10T04:10:02;0.50;99.90
29731;DHT22;16639;51.488;0.152;2022-12-10T04:12:30;0.80;99.90
29731;DHT22;16639;51.488;0.152;2022-12-10T04:14:57;0.50;99.90
29731;DHT22;16639;51.488;0.152;2022-12-10T04:17:43;0.50;99.90
29731;DHT22;16639;51.488;0.152;2022-12-10T04:20:11;0.50;99.90
29731;DHT22;16639;51.488;0.152;2022-12-10T04:22:58;0.50;99.90
29731;DHT22;16639;51.488;0.152;2022-12-10T04:25:44;0.40;99.90
29731;DHT22;16639;51.488;0.152;2022-12-10T04:28:30;0.50;99.90
29731;DHT22;16639;51.488;0.152;2022-12-10T04:30:57;0.50;99.90
29731;DHT22;16639;51.488;0.152;2022-12-10T04:33:25;0.50;99.90
29731;DHT22;16639;51.488;0.152;2022-12-10T04:35:52;0.60;99.90
29731;DHT22;16639;51.488;0.152;2022-12-10T04:38:19;0.50;99.90
29731;DHT22;16639;51.488;0.152;2022-12-10T04:40:46;0.60;99.90
29731;DHT22;16639;51.488;0.152;2022-12-10T04:43:14;0.60;99.90
29731;DHT22;16639;51.488;0.152;2022-12-10T04:45:41;0.60;99.90
29731;DHT22;16639;51.488;0.152;2022-12-10T04:48:08;0.50;99.90
29731;DHT22;16639;51.488;0.152;2022-12-10T04:50:36;0.60;99.90
29731;DHT22;16639;51.488;0.152;2022-12-10T04:53:03;0.60;99.90
29731;DHT22;16639;51.488;0.152;2022-12-10T04:55:30;0.60;99.90
29731;DHT22;16639;51.488;0.152;2022-12-10T04:57:58;0.80;99.90
29731;DHT22;16639;51.488;0.152;2022-12-10T05:00:25;0.60;99.90
29731;DHT22;16639;51.488;0.152;2022-12-10T05:02:53;0.50;99.90
29731;DHT22;16639;51.488;0.152;2022-12-10T05:05:21;0.50;99.90
29731;DHT22;16639;51.488;0.152;2022-12-10T05:07:48;0.50;99.90
29731;DHT22;16639;51.488;0.152;2022-12-10T05:10:16;0.50;99.90
29731;DHT22;16639;51.488;0.152;2022-12-10T05:12:43;0.50;99.90
29731;DHT22;16639;51.488;0.152;2022-12-10T05:15:10;0.50;99.90
29731;DHT22;16639;51.488;0.152;2022-12-10T05:17:38;0.50;99.90
29731;DHT22;16639;51.488;0.152;2022-12-10T05:20:05;0.40;99.90
29731;DHT22;16639;51.488;0.152;2022-12-10T05:22:34;0.40;99.90
29731;DHT22;16639;51.488;0.152;2022-12-10T05:25:20;0.40;99.90
29731;DHT22;16639;51.488;0.152;2022-12-10T05:27:47;0.40;99.90
29731;DHT22;16639;51.488;0.152;2022-12-10T05:30:14;0.50;99.90
29731;DHT22;16639;51.488;0.152;2022-12-10T05:32:42;0.50;99.90
29731;DHT22;16639;51.488;0.152;2022-12-10T05:35:09;0.40;99.90
29731;DHT22;16639;51.488;0.152;2022-12-10T05:37:37;0.40;99.90
29731;DHT22;16639;51.488;0.152;2022-12-10T05:40:04;0.40;99.90
29731;DHT22;16639;51.488;0.152;2022-12-10T05:42:32;0.30;99.90
29731;DHT22;16639;51.488;0.152;2022-12-10T05:45:00;0.30;99.90
29731;DHT22;16639;51.488;0.152;2022-12-10T05:47:27;0.30;99.90
29731;DHT22;16639;51.488;0.152;2022-12-10T05:49:54;0.30;99.90
29731;DHT22;16639;51.488;0.152;2022-12-10T05:52:22;0.40;99.90
29731;DHT22;16639;51.488;0.152;2022-12-10T05:54:49;-0.10;99.90
29731;DHT22;16639;51.488;0.152;2022-12-10T05:57:16;1.10;99.90
29731;DHT22;16639;51.488;0.152;2022-12-10T05:59:44;0.30;99.90
29731;DHT22;16639;51.488;0.152;2022-12-10T06:02:11;0.30;99.90
29731;DHT22;16639;51.488;0.152;2022-12-10T06:04:38;0.30;99.90
29731;DHT22;16639;51.488;0.152;2022-12-10T06:07:06;0.30;99.90
29731;DHT22;16639;51.488;0.152;2022-12-10T06:09:37;0.30;99.90
29731;DHT22;16639;51.488;0.152;2022-12-10T06:12:05;0.30;99.90
29731;DHT22;16639;51.488;0.152;2022-12-10T06:14:32;0.50;99.90
29731;DHT22;16639;51.488;0.152;2022-12-10T06:17:00;1.00;99.90
29731;DHT22;16639;51.488;0.152;2022-12-10T06:19:27;0.50;99.90
29731;DHT22;16639;51.488;0.152;2022-12-10T06:21:54;0.40;99.90
29731;DHT22;16639;51.488;0.152;2022-12-10T06:24:21;0.50;99.90
29731;DHT22;16639;51.488;0.152;2022-12-10T06:26:49;0.50;99.90
29731;DHT22;16639;51.488;0.152;2022-12-10T06:29:21;0.50;99.90
29731;DHT22;16639;51.488;0.152;2022-12-10T06:31:49;0.60;99.90
29731;DHT22;16639;51.488;0.152;2022-12-10T06:34:16;0.60;99.90
29731;DHT22;16639;51.488;0.152;2022-12-10T06:36:44;0.70;99.90
29731;DHT22;16639;51.488;0.152;2022-12-10T06:39:11;1.90;99.90
29731;DHT22;16639;51.488;0.152;2022-12-10T06:41:39;0.70;99.90
29731;DHT22;16639;51.488;0.152;2022-12-10T06:44:10;0.70;99.90
29731;DHT22;16639;51.488;0.152;2022-12-10T06:46:40;0.30;99.90
29731;DHT22;16639;51.488;0.152;2022-12-10T06:49:08;0.50;99.90
29731;DHT22;16639;51.488;0.152;2022-12-10T06:51:35;0.60;99.90
29731;DHT22;16639;51.488;0.152;2022-12-10T06:54:03;0.70;99.90
29731;DHT22;16639;51.488;0.152;2022-12-10T06:56:30;0.70;99.90
29731;DHT22;16639;51.488;0.152;2022-12-10T06:58:58;0.60;99.90
29731;DHT22;16639;51.488;0.152;2022-12-10T07:01:27;0.60;99.90
29731;DHT22;16639;51.488;0.152;2022-12-10T07:03:57;0.60;99.90
29731;DHT22;16639;51.488;0.152;2022-12-10T07:06:26;1.10;99.90
29731;DHT22;16639;51.488;0.152;2022-12-10T07:08:55;0.50;99.90
29731;DHT22;16639;51.488;0.152;2022-12-10T07:11:23;0.50;99.90
29731;DHT22;16639;51.488;0.152;2022-12-10T07:13:52;0.50;99.90
29731;DHT22;16639;51.488;0.152;2022-12-10T07:16:22;0.50;99.90
29731;DHT22;16639;51.488;0.152;2022-12-10T07:18:51;0.50;99.90
29731;DHT22;16639;51.488;0.152;2022-12-10T07:21:31;0.50;99.90
29731;DHT22;16639;51.488;0.152;2022-12-10T07:24:07;0.50;99.90
29731;DHT22;16639;51.488;0.152;2022-12-10T07:26:37;0.30;99.90
29731;DHT22;16639;51.488;0.152;2022-12-10T07:29:06;0.50;99.90
29731;DHT22;16639;51.488;0.152;2022-12-10T07:31:36;0.50;99.90
29731;DHT22;16639;51.488;0.152;2022-12-10T07:34:05;0.50;99.90
29731;DHT22;16639;51.488;0.152;2022-12-10T07:36:33;0.60;99.90
29731;DHT22;16639;51.488;0.152;2022-12-10T07:39:00;0.60;99.90
29731;DHT22;16639;51.488;0.152;2022-12-10T07:41:27;0.60;99.90
29731;DHT22;16639;51.488;0.152;2022-12-10T07:43:55;0.50;99.90
29731;DHT22;16639;51.488;0.152;2022-12-10T07:46:28;1.30;99.90
29731;DHT22;16639;51.488;0.152;2022-12-10T07:48:59;0.50;99.90
29731;DHT22;16639;51.488;0.152;2022-12-10T07:51:27;0.50;99.90
29731;DHT22;16639;51.488;0.152;2022-12-10T07:53:54;0.60;99.90
29731;DHT22;16639;51.488;0.152;2022-12-10T07:56:23;0.60;99.90
29731;DHT22;16639;51.488;0.152;2022-12-10T07:58:52;0.60;99.90
29731;DHT22;16639;51.488;0.152;2022-12-10T08:01:24;0.10;99.90
29731;DHT22;16639;51.488;0.152;2022-12-10T08:03:54;0.60;99.90
29731;DHT22;16639;51.488;0.152;2022-12-10T08:06:24;0.60;99.90
29731;DHT22;16639;51.488;0.152;2022-12-10T08:08:52;0.60;99.90
29731;DHT22;16639;51.488;0.152;2022-12-10T08:11:21;0.60;99.90
29731;DHT22;16639;51.488;0.152;2022-12-10T08:13:49;0.60;99.90
29731;DHT22;16639;51.488;0.152;2022-12-10T08:16:25;0.70;99.90
29731;DHT22;16639;51.488;0.152;2022-12-10T08:18:58;0.70;99.90
29731;DHT22;16639;51.488;0.152;2022-12-10T08:21:28;0.60;99.90
29731;DHT22;16639;51.488;0.152;2022-12-10T08:23:56;0.60;99.90
29731;DHT22;16639;51.488;0.152;2022-12-10T08:26:27;0.70;99.90
29731;DHT22;16639;51.488;0.152;2022-12-10T08:28:55;0.70;99.90
29731;DHT22;16639;51.488;0.152;2022-12-10T08:31:24;0.60;99.90
29731;DHT22;16639;51.488;0.152;2022-12-10T08:33:52;0.60;99.90
29731;DHT22;16639;51.488;0.152;2022-12-10T08:36:20;0.70;99.90
29731;DHT22;16639;51.488;0.152;2022-12-10T08:38:47;0.60;99.90
29731;DHT22;16639;51.488;0.152;2022-12-10T08:41:18;0.70;99.90
29731;DHT22;16639;51.488;0.152;2022-12-10T08:43:46;0.60;99.90
29731;DHT22;16639;51.488;0.152;2022-12-10T08:46:15;0.60;99.90
29731;DHT22;16639;51.488;0.152;2022-12-10T08:48:43;0.60;99.90
29731;DHT22;16639;51.488;0.152;2022-12-10T08:51:13;0.60;99.90
29731;DHT22;16639;51.488;0.152;2022-12-10T08:53:41;0.60;99.90
29731;DHT22;16639;51.488;0.152;2022-12-10T08:56:09;0.60;99.90
29731;DHT22;16639;51.488;0.152;2022-12-10T08:58:37;0.70;99.90
29731;DHT22;16639;51.488;0.152;2022-12-10T09:01:09;0.80;99.90
29731;DHT22;16639;51.488;0.152;2022-12-10T09:03:38;0.60;99.90
29731;DHT22;16639;51.488;0.152;2022-12-10T09:06:12;0.60;99.90
29731;DHT22;16639;51.488;0.152;2022-12-10T09:08:41;0.70;99.90
29731;DHT22;16639;51.488;0.152;2022-12-10T09:11:12;0.70;99.90
29731;DHT22;16639;51.488;0.152;2022-12-10T09:13:40;0.70;99.90
29731;DHT22;16639;51.488;0.152;2022-12-10T09:16:07;0.70;99.90
29731;DHT22;16639;51.488;0.152;2022-12-10T09:18:35;0.70;99.90
29731;DHT22;16639;51.488;0.152;2022-12-10T09:21:07;0.70;99.90
29731;DHT22;16639;51.488;0.152;2022-12-10T09:23:35;0.70;99.90
29731;DHT22;16639;51.488;0.152;2022-12-10T09:26:11;0.80;99.90
29731;DHT22;16639;51.488;0.152;2022-12-10T09:28:40;0.90;99.90
29731;DHT22;16639;51.488;0.152;2022-12-10T09:31:08;0.90;99.90
29731;DHT22;16639;51.488;0.152;2022-12-10T09:33:48;1.40;99.90
29731;DHT22;16639;51.488;0.152;2022-12-10T09:36:16;1.00;99.90
29731;DHT22;16639;51.488;0.152;2022-12-10T09:38:44;1.00;99.90
29731;DHT22;16639;51.488;0.152;2022-12-10T09:46:59;1.50;99.90
29731;DHT22;16639;51.488;0.152;2022-12-10T09:49:49;1.20;99.90
29731;DHT22;16639;51.488;0.152;2022-12-10T09:52:21;1.10;99.90
29731;DHT22;16639;51.488;0.152;2022-12-10T09:54:58;1.20;99.90
29731;DHT22;16639;51.488;0.152;2022-12-10T09:57:31;1.20;99.90
29731;DHT22;16639;51.488;0.152;2022-12-10T10:00:44;1.20;99.90
29731;DHT22;16639;51.488;0.152;2022-12-10T10:02:51;1.20;99.90
29731;DHT22;16639;51.488;0.152;2022-12-10T10:05:29;1.30;99.90
29731;DHT22;16639;51.488;0.152;2022-12-10T10:08:01;1.40;99.90
29731;DHT22;16639;51.488;0.152;2022-12-10T10:10:32;1.40;99.90
29731;DHT22;16639;51.488;0.152;2022-12-10T10:13:21;1.50;99.90
29731;DHT22;16639;51.488;0.152;2022-12-10T10:15:52;1.60;99.90
29731;DHT22;16639;51.488;0.152;2022-12-10T10:18:29;1.60;99.90
29731;DHT22;16639;51.488;0.152;2022-12-10T10:21:00;1.70;99.90
29731;DHT22;16639;51.488;0.152;2022-12-10T10:23:27;1.80;99.90
29731;DHT22;16639;51.488;0.152;2022-12-10T10:25:56;1.80;99.90
29731;DHT22;16639;51.488;0.152;2022-12-10T10:28:23;1.90;99.90
29731;DHT22;16639;51.488;0.152;2022-12-10T10:30:52;1.90;99.90
29731;DHT22;16639;51.488;0.152;2022-12-10T10:33:21;1.90;99.90
29731;DHT22;16639;51.488;0.152;2022-12-10T10:35:54;2.80;99.90
29731;DHT22;16639;51.488;0.152;2022-12-10T10:38:31;2.00;99.90
29731;DHT22;16639;51.488;0.152;2022-12-10T10:41:01;1.90;99.90
29731;DHT22;16639;51.488;0.152;2022-12-10T10:43:38;2.10;99.90
29731;DHT22;16639;51.488;0.152;2022-12-10T10:46:30;2.10;99.90
29731;DHT22;16639;51.488;0.152;2022-12-10T10:51:43;2.10;99.90
29731;DHT22;16639;51.488;0.152;2022-12-10T10:54:30;3.20;99.90
29731;DHT22;16639;51.488;0.152;2022-12-10T10:56:58;2.20;99.90
29731;DHT22;16639;51.488;0.152;2022-12-10T10:59:35;2.30;99.90
29731;DHT22;16639;51.488;0.152;2022-12-10T11:04:55;2.30;99.90
29731;DHT22;16639;51.488;0.152;2022-12-10T11:07:37;3.20;99.90
29731;DHT22;16639;51.488;0.152;2022-12-10T11:10:22;2.40;99.90
29731;DHT22;16639;51.488;0.152;2022-12-10T11:13:05;2.40;99.90
29731;DHT22;16639;51.488;0.152;2022-12-10T11:15:40;2.40;99.90
29731;DHT22;16639;51.488;0.152;2022-12-10T11:18:34;2.50;99.90
29731;DHT22;16639;51.488;0.152;2022-12-10T11:23:45;2.50;99.90
29731;DHT22;16639;51.488;0.152;2022-12-10T11:32:03;2.50;99.90
29731;DHT22;16639;51.488;0.152;2022-12-10T11:48:51;2.70;99.90
29731;DHT22;16639;51.488;0.152;2022-12-10T11:51:46;2.80;99.90
29731;DHT22;16639;51.488;0.152;2022-12-10T12:00:41;2.90;99.90
29731;DHT22;16639;51.488;0.152;2022-12-10T12:03:49;2.90;99.90
29731;DHT22;16639;51.488;0.152;2022-12-10T12:12:12;3.00;99.90
29731;DHT22;16639;51.488;0.152;2022-12-10T12:14:48;2.90;99.90
29731;DHT22;16639;51.488;0.152;2022-12-10T12:17:43;3.00;99.90
29731;DHT22;16639;51.488;0.152;2022-12-10T12:20:19;3.00;99.90
29731;DHT22;16639;51.488;0.152;2022-12-10T12:22:57;3.00;99.90
29731;DHT22;16639;51.488;0.152;2022-12-10T12:25:30;3.10;99.90
29731;DHT22;16639;51.488;0.152;2022-12-10T12:30:34;3.10;99.90
29731;DHT22;16639;51.488;0.152;2022-12-10T12:35:50;3.40;99.90
29731;DHT22;16639;51.488;0.152;2022-12-10T12:38:35;3.30;99.90
29731;DHT22;16639;51.488;0.152;2022-12-10T12:41:16;3.30;99.90
29731;DHT22;16639;51.488;0.152;2022-12-10T12:44:03;3.30;99.90
29731;DHT22;16639;51.488;0.152;2022-12-10T12:46:42;3.30;99.90
29731;DHT22;16639;51.488;0.152;2022-12-10T12:49:31;3.30;99.90
29731;DHT22;16639;51.488;0.152;2022-12-10T12:52:38;3.30;99.90
29731;DHT22;16639;51.488;0.152;2022-12-10T12:55:36;3.30;99.90
29731;DHT22;16639;51.488;0.152;2022-12-10T12:58:13;3.30;99.90
29731;DHT22;16639;51.488;0.152;2022-12-10T13:00:46;3.40;99.90
29731;DHT22;16639;51.488;0.152;2022-12-10T13:06:23;3.40;99.90
29731;DHT22;16639;51.488;0.152;2022-12-10T13:09:16;3.40;99.90
29731;DHT22;16639;51.488;0.152;2022-12-10T13:17:37;3.50;99.90
29731;DHT22;16639;51.488;0.152;2022-12-10T13:23:29;3.60;99.90
29731;DHT22;16639;51.488;0.152;2022-12-10T13:33:51;3.40;99.90
29731;DHT22;16639;51.488;0.152;2022-12-10T13:36:26;3.50;99.90
29731;DHT22;16639;51.488;0.152;2022-12-10T13:39:11;3.50;99.90
29731;DHT22;16639;51.488;0.152;2022-12-10T13:42:20;5.50;99.90
29731;DHT22;16639;51.488;0.152;2022-12-10T13:44:49;3.50;99.90
29731;DHT22;16639;51.488;0.152;2022-12-10T13:56:10;3.50;99.90
29731;DHT22;16639;51.488;0.152;2022-12-10T14:01:16;4.00;99.90
29731;DHT22;16639;51.488;0.152;2022-12-10T14:06:47;3.30;99.90
29731;DHT22;16639;51.488;0.152;2022-12-10T14:09:23;3.20;99.90
29731;DHT22;16639;51.488;0.152;2022-12-10T14:12:10;3.20;99.90
29731;DHT22;16639;51.488;0.152;2022-12-10T14:14:46;3.20;99.90
29731;DHT22;16639;51.488;0.152;2022-12-10T14:17:17;3.70;99.90
29731;DHT22;16639;51.488;0.152;2022-12-10T14:19:46;3.10;99.90
29731;DHT22;16639;51.488;0.152;2022-12-10T14:22:46;3.30;99.90
29731;DHT22;16639;51.488;0.152;2022-12-10T14:25:20;3.00;99.90
29731;DHT22;16639;51.488;0.152;2022-12-10T14:27:50;3.20;99.90
29731;DHT22;16639;51.488;0.152;2022-12-10T14:30:23;3.20;99.90
29731;DHT22;16639;51.488;0.152;2022-12-10T14:32:54;3.20;99.90
29731;DHT22;16639;51.488;0.152;2022-12-10T14:35:24;3.20;99.90
29731;DHT22;16639;51.488;0.152;2022-12-10T14:37:55;3.20;99.90
29731;DHT22;16639;51.488;0.152;2022-12-10T14:40:37;3.20;99.90
29731;DHT22;16639;51.488;0.152;2022-12-10T14:43:13;3.20;99.90
29731;DHT22;16639;51.488;0.152;2022-12-10T14:48:15;3.20;99.90
29731;DHT22;16639;51.488;0.152;2022-12-10T14:50:46;3.10;99.90
29731;DHT22;16639;51.488;0.152;2022-12-10T14:53:24;3.20;99.90
29731;DHT22;16639;51.488;0.152;2022-12-10T14:55:59;3.10;99.90
29731;DHT22;16639;51.488;0.152;2022-12-10T14:58:37;1.70;99.90
29731;DHT22;16639;51.488;0.152;2022-12-10T15:01:27;3.10;99.90
29731;DHT22;16639;51.488;0.152;2022-12-10T15:03:58;3.10;99.90
29731;DHT22;16639;51.488;0.152;2022-12-10T15:06:26;2.90;99.90
29731;DHT22;16639;51.488;0.152;2022-12-10T15:08:56;3.00;99.90
29731;DHT22;16639;51.488;0.152;2022-12-10T15:11:26;3.00;99.90
29731;DHT22;16639;51.488;0.152;2022-12-10T15:13:58;3.00;99.90
29731;DHT22;16639;51.488;0.152;2022-12-10T15:16:40;2.90;99.90
29731;DHT22;16639;51.488;0.152;2022-12-10T15:21:43;3.00;99.90
29731;DHT22;16639;51.488;0.152;2022-12-10T15:24:36;3.30;99.90
29731;DHT22;16639;51.488;0.152;2022-12-10T15:27:24;2.90;99.90
29731;DHT22;16639;51.488;0.152;2022-12-10T15:29:52;3.00;99.90
29731;DHT22;16639;51.488;0.152;2022-12-10T15:32:25;2.90;99.90
29731;DHT22;16639;51.488;0.152;2022-12-10T15:34:59;3.00;99.90
29731;DHT22;16639;51.488;0.152;2022-12-10T15:37:39;2.80;99.90
29731;DHT22;16639;51.488;0.152;2022-12-10T15:40:28;2.80;99.90
29731;DHT22;16639;51.488;0.152;2022-12-10T15:45:50;2.70;99.90
29731;DHT22;16639;51.488;0.152;2022-12-10T15:48:17;2.60;99.90
29731;DHT22;16639;51.488;0.152;2022-12-10T15:50:45;2.60;99.90
29731;DHT22;16639;51.488;0.152;2022-12-10T15:53:14;2.50;99.90
29731;DHT22;16639;51.488;0.152;2022-12-10T15:55:43;2.50;99.90
29731;DHT22;16639;51.488;0.152;2022-12-10T15:58:12;2.50;99.90
29731;DHT22;16639;51.488;0.152;2022-12-10T16:00:40;2.10;99.90
29731;DHT22;16639;51.488;0.152;2022-12-10T16:03:13;2.30;99.90
29731;DHT22;16639;51.488;0.152;2022-12-10T16:05:41;2.30;99.90
29731;DHT22;16639;51.488;0.152;2022-12-10T16:08:13;2.20;99.90
29731;DHT22;16639;51.488;0.152;2022-12-10T16:10:45;2.10;99.90
29731;DHT22;16639;51.488;0.152;2022-12-10T16:13:26;2.10;99.90
29731;DHT22;16639;51.488;0.152;2022-12-10T16:16:00;2.10;99.90
29731;DHT22;16639;51.488;0.152;2022-12-10T16:18:30;2.20;99.90
29731;DHT22;16639;51.488;0.152;2022-12-10T16:21:00;2.00;99.90
29731;DHT22;16639;51.488;0.152;2022-12-10T16:23:28;2.40;99.90
29731;DHT22;16639;51.488;0.152;2022-12-10T16:25:56;2.00;99.90
29731;DHT22;16639;51.488;0.152;2022-12-10T16:28:24;2.00;99.90
29731;DHT22;16639;51.488;0.152;2022-12-10T16:30:57;1.80;99.90
29731;DHT22;16639;51.488;0.152;2022-12-10T16:33:26;1.90;99.90
29731;DHT22;16639;51.488;0.152;2022-12-10T16:35:54;1.90;99.90
29731;DHT22;16639;51.488;0.152;2022-12-10T16:38:23;1.80;99.90
29731;DHT22;16639;51.488;0.152;2022-12-10T16:40:51;1.70;99.90
29731;DHT22;16639;51.488;0.152;2022-12-10T16:43:21;1.80;99.90
29731;DHT22;16639;51.488;0.152;2022-12-10T16:45:49;1.80;99.90
29731;DHT22;16639;51.488;0.152;2022-12-10T16:48:18;1.80;99.90
29731;DHT22;16639;51.488;0.152;2022-12-10T16:50:46;2.90;99.90
29731;DHT22;16639;51.488;0.152;2022-12-10T16:53:17;1.80;99.90
29731;DHT22;16639;51.488;0.152;2022-12-10T16:55:45;2.00;99.90
29731;DHT22;16639;51.488;0.152;2022-12-10T16:58:14;1.80;99.90
29731;DHT22;16639;51.488;0.152;2022-12-10T17:00:44;1.80;99.90
29731;DHT22;16639;51.488;0.152;2022-12-10T17:03:17;1.70;99.90
29731;DHT22;16639;51.488;0.152;2022-12-10T17:08:20;1.80;99.90
29731;DHT22;16639;51.488;0.152;2022-12-10T17:10:48;3.60;99.90
29731;DHT22;16639;51.488;0.152;2022-12-10T17:13:35;1.70;99.90
29731;DHT22;16639;51.488;0.152;2022-12-10T17:16:03;1.70;99.90
29731;DHT22;16639;51.488;0.152;2022-12-10T17:18:33;1.70;99.90
29731;DHT22;16639;51.488;0.152;2022-12-10T17:21:01;1.70;99.90
29731;DHT22;16639;51.488;0.152;2022-12-10T17:23:28;1.70;99.90
29731;DHT22;16639;51.488;0.152;2022-12-10T17:25:56;2.10;99.90
29731;DHT22;16639;51.488;0.152;2022-12-10T17:28:24;1.60;99.90
29731;DHT22;16639;51.488;0.152;2022-12-10T17:30:51;1.60;99.90
29731;DHT22;16639;51.488;0.152;2022-12-10T17:33:21;1.60;99.90
29731;DHT22;16639;51.488;0.152;2022-12-10T17:35:51;1.60;99.90
29731;DHT22;16639;51.488;0.152;2022-12-10T17:38:22;1.60;99.90
29731;DHT22;16639;51.488;0.152;2022-12-10T17:40:50;1.20;99.90
29731;DHT22;16639;51.488;0.152;2022-12-10T17:43:18;1.50;99.90
29731;DHT22;16639;51.488;0.152;2022-12-10T17:45:45;2.00;99.90
29731;DHT22;16639;51.488;0.152;2022-12-10T17:48:15;1.50;99.90
29731;DHT22;16639;51.488;0.152;2022-12-10T17:50:44;1.50;99.90
29731;DHT22;16639;51.488;0.152;2022-12-10T17:53:13;1.50;99.90
29731;DHT22;16639;51.488;0.152;2022-12-10T17:55:52;1.50;99.90
29731;DHT22;16639;51.488;0.152;2022-12-10T17:58:20;1.50;99.90
29731;DHT22;16639;51.488;0.152;2022-12-10T18:00:51;1.60;99.90
29731;DHT22;16639;51.488;0.152;2022-12-10T18:03:18;1.50;99.90
29731;DHT22;16639;51.488;0.152;2022-12-10T18:05:46;1.50;99.90
29731;DHT22;16639;51.488;0.152;2022-12-10T18:08:15;1.50;99.90
29731;DHT22;16639;51.488;0.152;2022-12-10T18:10:45;1.50;99.90